Pocinhos, Brazil
Current Conditions -  °F | °C
As of 2:00 PM on Sunday 23 Nov 2014 (Local Time) from SBKG Reporting Station
Scattered Clouds Scattered Clouds  
Wind Chill: 86°   Ceiling: Unl
Heat Index: 86°   Visibility: 6mi
Dew Point: 57°   Wind: 12mph
Humidity: 37%   Direction: 80°E
Pressure: 29.91"   Gusts: NA
Location:  7.08°S, 36.06°W
Report Text: SBKG 231700Z 08010KT 9999 SCT040 30/14 Q1013
Loading
Personal Weather Stations






























Interactive Weather Map New forecast layout! Learn more

10-Day Weather Forecast

Advertisements
Track Severe Weather on mobile